sensor_id;sensor_type;location;lat;lon;timestamp;pressure;altitude;pressure_sealevel;temperature;humidity
48404;BME280;34202;52.536;6.042;2022-10-16T00:02:32;100970.88;;;12.88;99.77
48404;BME280;34202;52.536;6.042;2022-10-16T00:07:33;100972.09;;;12.86;99.68
48404;BME280;34202;52.536;6.042;2022-10-16T00:12:33;100967.03;;;12.83;99.63
48404;BME280;34202;52.536;6.042;2022-10-16T00:17:33;100966.68;;;12.80;99.60
48404;BME280;34202;52.536;6.042;2022-10-16T00:22:33;100968.42;;;12.77;99.47
48404;BME280;34202;52.536;6.042;2022-10-16T00:27:34;100960.57;;;12.74;99.44
48404;BME280;34202;52.536;6.042;2022-10-16T00:32:34;100966.34;;;12.71;99.42
48404;BME280;34202;52.536;6.042;2022-10-16T00:37:35;100969.30;;;12.68;99.34
48404;BME280;34202;52.536;6.042;2022-10-16T00:42:35;100968.77;;;12.64;99.33
48404;BME280;34202;52.536;6.042;2022-10-16T00:47:45;100963.72;;;12.63;99.38
48404;BME280;34202;52.536;6.042;2022-10-16T00:52:50;100972.79;;;12.61;99.24
48404;BME280;34202;52.536;6.042;2022-10-16T00:57:51;100968.60;;;12.60;99.36
48404;BME280;34202;52.536;6.042;2022-10-16T01:02:58;100966.16;;;12.59;99.23
48404;BME280;34202;52.536;6.042;2022-10-16T01:08:08;100962.14;;;12.57;99.19
48404;BME280;34202;52.536;6.042;2022-10-16T01:13:18;100964.59;;;12.56;99.21
48404;BME280;34202;52.536;6.042;2022-10-16T01:18:42;100962.14;;;12.56;99.27
48404;BME280;34202;52.536;6.042;2022-10-16T01:23:51;100964.94;;;12.58;99.38
48404;BME280;34202;52.536;6.042;2022-10-16T01:34:14;100962.67;;;12.61;99.50
48404;BME280;34202;52.536;6.042;2022-10-16T01:39:18;100963.73;;;12.63;99.51
48404;BME280;34202;52.536;6.042;2022-10-16T01:44:22;100960.05;;;12.66;99.55
48404;BME280;34202;52.536;6.042;2022-10-16T01:49:29;100957.78;;;12.68;99.45
48404;BME280;34202;52.536;6.042;2022-10-16T01:54:31;100957.95;;;12.70;99.52
48404;BME280;34202;52.536;6.042;2022-10-16T01:59:38;100946.42;;;12.73;99.52
48404;BME280;34202;52.536;6.042;2022-10-16T02:04:46;100943.10;;;12.76;99.49
48404;BME280;34202;52.536;6.042;2022-10-16T02:09:47;100940.14;;;12.76;99.51
48404;BME280;34202;52.536;6.042;2022-10-16T02:14:47;100924.25;;;12.78;99.61
48404;BME280;34202;52.536;6.042;2022-10-16T02:19:49;100934.02;;;12.80;99.70
48404;BME280;34202;52.536;6.042;2022-10-16T02:25:02;100946.95;;;12.81;99.71
48404;BME280;34202;52.536;6.042;2022-10-16T02:30:13;100948.35;;;12.84;99.69
48404;BME280;34202;52.536;6.042;2022-10-16T02:35:19;100951.32;;;12.87;99.74
48404;BME280;34202;52.536;6.042;2022-10-16T02:40:21;100951.99;;;12.89;99.60
48404;BME280;34202;52.536;6.042;2022-10-16T02:45:22;100968.95;;;12.92;99.79
48404;BME280;34202;52.536;6.042;2022-10-16T02:50:23;100969.64;;;12.95;99.73
48404;BME280;34202;52.536;6.042;2022-10-16T02:55:25;100974.70;;;12.97;99.68
48404;BME280;34202;52.536;6.042;2022-10-16T03:00:25;100977.67;;;13.00;99.74
48404;BME280;34202;52.536;6.042;2022-10-16T03:05:25;100979.77;;;13.02;99.72
48404;BME280;34202;52.536;6.042;2022-10-16T03:10:27;100996.55;;;13.03;99.65
48404;BME280;34202;52.536;6.042;2022-10-16T03:15:27;101000.38;;;13.05;99.73
48404;BME280;34202;52.536;6.042;2022-10-16T03:20:28;101004.23;;;13.05;99.72
48404;BME280;34202;52.536;6.042;2022-10-16T03:25:29;101010.69;;;13.07;99.77
48404;BME280;34202;52.536;6.042;2022-10-16T03:30:29;101014.70;;;13.06;99.79
48404;BME280;34202;52.536;6.042;2022-10-16T03:35:30;101010.16;;;13.05;99.73
48404;BME280;34202;52.536;6.042;2022-10-16T03:40:30;101002.99;;;13.03;99.63
48404;BME280;34202;52.536;6.042;2022-10-16T03:45:32;101000.38;;;13.01;99.42
48404;BME280;34202;52.536;6.042;2022-10-16T03:50:32;101005.63;;;12.98;99.33
48404;BME280;34202;52.536;6.042;2022-10-16T03:55:32;101009.83;;;12.95;99.42
48404;BME280;34202;52.536;6.042;2022-10-16T04:00:33;101013.48;;;12.93;99.51
48404;BME280;34202;52.536;6.042;2022-10-16T04:05:34;101023.10;;;12.90;99.40
48404;BME280;34202;52.536;6.042;2022-10-16T04:10:34;101028.34;;;12.86;99.54
48404;BME280;34202;52.536;6.042;2022-10-16T04:15:35;101032.52;;;12.83;99.56
48404;BME280;34202;52.536;6.042;2022-10-16T04:20:35;101040.39;;;12.81;99.91
48404;BME280;34202;52.536;6.042;2022-10-16T04:25:35;101049.46;;;12.79;99.98
48404;BME280;34202;52.536;6.042;2022-10-16T04:30:38;101055.75;;;12.78;100.00
48404;BME280;34202;52.536;6.042;2022-10-16T04:35:39;101058.55;;;12.76;100.00
48404;BME280;34202;52.536;6.042;2022-10-16T04:40:41;101061.34;;;12.75;100.00
48404;BME280;34202;52.536;6.042;2022-10-16T04:45:42;101064.30;;;12.72;100.00
48404;BME280;34202;52.536;6.042;2022-10-16T04:50:42;101077.05;;;12.69;100.00
48404;BME280;34202;52.536;6.042;2022-10-16T04:55:42;101077.23;;;12.68;100.00
48404;BME280;34202;52.536;6.042;2022-10-16T05:00:44;101083.14;;;12.66;100.00
48404;BME280;34202;52.536;6.042;2022-10-16T05:05:45;101089.25;;;12.63;100.00
48404;BME280;34202;52.536;6.042;2022-10-16T05:10:45;101094.31;;;12.60;100.00
48404;BME280;34202;52.536;6.042;2022-10-16T05:15:47;101093.78;;;12.58;100.00
48404;BME280;34202;52.536;6.042;2022-10-16T05:20:48;101096.73;;;12.55;100.00
48404;BME280;34202;52.536;6.042;2022-10-16T05:25:53;101106.16;;;12.53;100.00
48404;BME280;34202;52.536;6.042;2022-10-16T05:30:54;101111.05;;;12.51;100.00
48404;BME280;34202;52.536;6.042;2022-10-16T05:35:54;101119.60;;;12.48;100.00
48404;BME280;34202;52.536;6.042;2022-10-16T05:40:55;101125.70;;;12.47;100.00
48404;BME280;34202;52.536;6.042;2022-10-16T05:46:00;101125.34;;;12.44;100.00
48404;BME280;34202;52.536;6.042;2022-10-16T05:51:11;101129.00;;;12.43;100.00
48404;BME280;34202;52.536;6.042;2022-10-16T05:56:11;101134.06;;;12.42;100.00
48404;BME280;34202;52.536;6.042;2022-10-16T06:01:18;101142.98;;;12.42;100.00
48404;BME280;34202;52.536;6.042;2022-10-16T06:06:23;101152.21;;;12.43;100.00
48404;BME280;34202;52.536;6.042;2022-10-16T06:11:28;101161.31;;;12.45;100.00
48404;BME280;34202;52.536;6.042;2022-10-16T06:16:29;101170.56;;;12.47;100.00
48404;BME280;34202;52.536;6.042;2022-10-16T06:21:29;101166.90;;;12.48;100.00
48404;BME280;34202;52.536;6.042;2022-10-16T06:26:30;101172.14;;;12.50;100.00
48404;BME280;34202;52.536;6.042;2022-10-16T06:31:30;101176.00;;;12.52;100.00
48404;BME280;34202;52.536;6.042;2022-10-16T06:36:33;101181.41;;;12.56;100.00
48404;BME280;34202;52.536;6.042;2022-10-16T06:41:34;101185.80;;;12.59;100.00
48404;BME280;34202;52.536;6.042;2022-10-16T06:46:34;101199.61;;;12.63;100.00
48404;BME280;34202;52.536;6.042;2022-10-16T06:51:34;101218.66;;;12.67;100.00
48404;BME280;34202;52.536;6.042;2022-10-16T06:56:37;101226.71;;;12.72;100.00
48404;BME280;34202;52.536;6.042;2022-10-16T07:01:37;101238.95;;;12.78;100.00
48404;BME280;34202;52.536;6.042;2022-10-16T07:06:38;101232.68;;;12.82;100.00
48404;BME280;34202;52.536;6.042;2022-10-16T07:11:39;101225.70;;;12.85;100.00
48404;BME280;34202;52.536;6.042;2022-10-16T07:16:40;101221.01;;;12.87;100.00
48404;BME280;34202;52.536;6.042;2022-10-16T07:21:41;101205.45;;;12.88;100.00
48404;BME280;34202;52.536;6.042;2022-10-16T07:26:43;101229.04;;;12.89;100.00
48404;BME280;34202;52.536;6.042;2022-10-16T07:31:43;101245.29;;;12.91;100.00
48404;BME280;34202;52.536;6.042;2022-10-16T07:36:44;101267.32;;;12.93;100.00
48404;BME280;34202;52.536;6.042;2022-10-16T07:41:44;101272.23;;;12.97;100.00
48404;BME280;34202;52.536;6.042;2022-10-16T07:46:44;101290.95;;;13.02;100.00
48404;BME280;34202;52.536;6.042;2022-10-16T07:51:45;101300.73;;;13.08;100.00
48404;BME280;34202;52.536;6.042;2022-10-16T07:56:45;101311.77;;;13.14;100.00
48404;BME280;34202;52.536;6.042;2022-10-16T08:01:45;101327.89;;;13.21;100.00
48404;BME280;34202;52.536;6.042;2022-10-16T08:06:45;101339.80;;;13.28;100.00
48404;BME280;34202;52.536;6.042;2022-10-16T08:11:46;101344.91;;;13.36;100.00
48404;BME280;34202;52.536;6.042;2022-10-16T08:16:47;101353.15;;;13.41;100.00
48404;BME280;34202;52.536;6.042;2022-10-16T08:21:47;101356.84;;;13.46;100.00
48404;BME280;34202;52.536;6.042;2022-10-16T08:26:48;101366.84;;;13.52;100.00
48404;BME280;34202;52.536;6.042;2022-10-16T08:31:48;101364.73;;;13.58;100.00
48404;BME280;34202;52.536;6.042;2022-10-16T08:36:48;101370.52;;;13.64;100.00
48404;BME280;34202;52.536;6.042;2022-10-16T08:42:04;101383.32;;;13.74;100.00
48404;BME280;34202;52.536;6.042;2022-10-16T08:47:17;101385.95;;;13.84;100.00
48404;BME280;34202;52.536;6.042;2022-10-16T08:52:19;101398.94;;;13.95;100.00
48404;BME280;34202;52.536;6.042;2022-10-16T08:57:21;101404.73;;;14.05;100.00
48404;BME280;34202;52.536;6.042;2022-10-16T09:02:32;101411.73;;;14.15;100.00
48404;BME280;34202;52.536;6.042;2022-10-16T09:13:21;101433.11;;;14.40;100.00
48404;BME280;34202;52.536;6.042;2022-10-16T09:18:38;101436.80;;;14.51;100.00
48404;BME280;34202;52.536;6.042;2022-10-16T09:23:39;101449.61;;;14.63;100.00
48404;BME280;34202;52.536;6.042;2022-10-16T09:28:40;101453.27;;;14.76;100.00
48404;BME280;34202;52.536;6.042;2022-10-16T09:33:41;101460.80;;;14.90;100.00
48404;BME280;34202;52.536;6.042;2022-10-16T09:38:42;101461.31;;;15.04;100.00
48404;BME280;34202;52.536;6.042;2022-10-16T09:43:54;101478.45;;;15.19;100.00
48404;BME280;34202;52.536;6.042;2022-10-16T09:49:01;101481.93;;;15.33;99.65
48404;BME280;34202;52.536;6.042;2022-10-16T09:54:10;101489.08;;;15.47;99.23
48404;BME280;34202;52.536;6.042;2022-10-16T09:59:15;101490.61;;;15.64;98.98
48404;BME280;34202;52.536;6.042;2022-10-16T10:04:16;101490.92;;;15.79;98.36
48404;BME280;34202;52.536;6.042;2022-10-16T10:14:26;101502.36;;;16.09;97.60
48404;BME280;34202;52.536;6.042;2022-10-16T10:19:28;101503.15;;;16.26;96.95
48404;BME280;34202;52.536;6.042;2022-10-16T10:24:28;101508.14;;;16.40;96.73
48404;BME280;34202;52.536;6.042;2022-10-16T10:35:17;101526.23;;;16.66;94.86
48404;BME280;34202;52.536;6.042;2022-10-16T10:46:04;101535.77;;;16.87;93.06
48404;BME280;34202;52.536;6.042;2022-10-16T11:01:49;101562.21;;;16.99;90.34
48404;BME280;34202;52.536;6.042;2022-10-16T11:06:52;101563.59;;;17.02;89.74
48404;BME280;34202;52.536;6.042;2022-10-16T11:12:08;101569.42;;;17.00;89.16
48404;BME280;34202;52.536;6.042;2022-10-16T11:17:16;101573.31;;;16.96;88.45
48404;BME280;34202;52.536;6.042;2022-10-16T11:22:40;101575.91;;;17.00;88.56
48404;BME280;34202;52.536;6.042;2022-10-16T11:44:24;101589.71;;;17.32;86.84
48404;BME280;34202;52.536;6.042;2022-10-16T11:49:31;101589.11;;;17.40;86.63
48404;BME280;34202;52.536;6.042;2022-10-16T11:54:42;101596.60;;;17.47;85.90
48404;BME280;34202;52.536;6.042;2022-10-16T11:59:55;101594.64;;;17.50;85.43
48404;BME280;34202;52.536;6.042;2022-10-16T12:10:24;101601.48;;;17.53;84.52
48404;BME280;34202;52.536;6.042;2022-10-16T12:15:32;101614.34;;;17.52;83.79
48404;BME280;34202;52.536;6.042;2022-10-16T12:20:34;101617.86;;;17.51;83.67
48404;BME280;34202;52.536;6.042;2022-10-16T12:25:37;101625.23;;;17.53;83.49
48404;BME280;34202;52.536;6.042;2022-10-16T12:31:01;101626.11;;;17.53;82.83
48404;BME280;34202;52.536;6.042;2022-10-16T12:36:08;101628.55;;;17.55;82.56
48404;BME280;34202;52.536;6.042;2022-10-16T12:41:11;101634.36;;;17.54;81.70
48404;BME280;34202;52.536;6.042;2022-10-16T13:02:36;101655.89;;;17.49;81.23
48404;BME280;34202;52.536;6.042;2022-10-16T13:13:02;101658.38;;;17.45;80.98
48404;BME280;34202;52.536;6.042;2022-10-16T13:23:32;101661.92;;;17.43;81.07
48404;BME280;34202;52.536;6.042;2022-10-16T13:28:37;101667.42;;;17.37;80.82
48404;BME280;34202;52.536;6.042;2022-10-16T13:33:40;101669.05;;;17.32;80.84
48404;BME280;34202;52.536;6.042;2022-10-16T13:38:42;101665.20;;;17.29;80.93
48404;BME280;34202;52.536;6.042;2022-10-16T13:43:51;101667.52;;;17.26;80.72
48404;BME280;34202;52.536;6.042;2022-10-16T13:49:01;101666.11;;;17.25;80.74
48404;BME280;34202;52.536;6.042;2022-10-16T13:54:01;101676.16;;;17.24;80.40
48404;BME280;34202;52.536;6.042;2022-10-16T14:04:23;101684.95;;;17.25;80.40
48404;BME280;34202;52.536;6.042;2022-10-16T14:09:29;101696.89;;;17.26;80.04
48404;BME280;34202;52.536;6.042;2022-10-16T14:14:35;101700.23;;;17.26;79.59
48404;BME280;34202;52.536;6.042;2022-10-16T14:19:39;101710.27;;;17.26;78.97
48404;BME280;34202;52.536;6.042;2022-10-16T14:24:39;101717.13;;;17.27;78.99
48404;BME280;34202;52.536;6.042;2022-10-16T14:29:39;101723.79;;;17.29;79.28
48404;BME280;34202;52.536;6.042;2022-10-16T14:34:40;101719.90;;;17.31;78.89
48404;BME280;34202;52.536;6.042;2022-10-16T14:39:40;101722.19;;;17.32;78.59
48404;BME280;34202;52.536;6.042;2022-10-16T14:44:41;101711.45;;;17.32;78.40
48404;BME280;34202;52.536;6.042;2022-10-16T14:49:42;101709.88;;;17.31;78.29
48404;BME280;34202;52.536;6.042;2022-10-16T14:54:42;101711.81;;;17.30;78.20
48404;BME280;34202;52.536;6.042;2022-10-16T14:59:43;101717.43;;;17.31;78.38
48404;BME280;34202;52.536;6.042;2022-10-16T15:04:47;101723.60;;;17.32;78.57
48404;BME280;34202;52.536;6.042;2022-10-16T15:09:47;101727.30;;;17.30;78.57
48404;BME280;34202;52.536;6.042;2022-10-16T15:14:47;101733.65;;;17.27;78.63
48404;BME280;34202;52.536;6.042;2022-10-16T15:19:48;101736.12;;;17.26;78.65
48404;BME280;34202;52.536;6.042;2022-10-16T15:24:48;101740.89;;;17.24;78.91
48404;BME280;34202;52.536;6.042;2022-10-16T15:29:48;101746.35;;;17.24;79.10
48404;BME280;34202;52.536;6.042;2022-10-16T15:34:49;101741.25;;;17.22;79.21
48404;BME280;34202;52.536;6.042;2022-10-16T15:39:50;101733.37;;;17.19;79.30
48404;BME280;34202;52.536;6.042;2022-10-16T15:44:50;101742.35;;;17.16;79.37
48404;BME280;34202;52.536;6.042;2022-10-16T15:49:50;101738.84;;;17.13;79.53
48404;BME280;34202;52.536;6.042;2022-10-16T15:54:51;101734.12;;;17.10;79.62
48404;BME280;34202;52.536;6.042;2022-10-16T15:59:51;101733.27;;;17.08;79.82
48404;BME280;34202;52.536;6.042;2022-10-16T16:04:51;101734.86;;;17.04;79.77
48404;BME280;34202;52.536;6.042;2022-10-16T16:09:52;101732.61;;;16.98;79.75
48404;BME280;34202;52.536;6.042;2022-10-16T16:14:52;101734.91;;;16.94;79.86
48404;BME280;34202;52.536;6.042;2022-10-16T16:19:52;101739.16;;;16.89;79.96
48404;BME280;34202;52.536;6.042;2022-10-16T16:24:53;101746.56;;;16.84;80.01
48404;BME280;34202;52.536;6.042;2022-10-16T16:29:53;101757.11;;;16.76;80.02
48404;BME280;34202;52.536;6.042;2022-10-16T16:34:55;101756.27;;;16.69;80.05
48404;BME280;34202;52.536;6.042;2022-10-16T16:39:55;101756.65;;;16.61;80.01
48404;BME280;34202;52.536;6.042;2022-10-16T16:44:59;101767.39;;;16.53;80.06
48404;BME280;34202;52.536;6.042;2022-10-16T16:49:59;101776.02;;;16.46;80.16
48404;BME280;34202;52.536;6.042;2022-10-16T16:54:59;101776.23;;;16.36;80.19
48404;BME280;34202;52.536;6.042;2022-10-16T16:59:59;101774.48;;;16.28;80.15
48404;BME280;34202;52.536;6.042;2022-10-16T17:05:00;101780.65;;;16.18;80.30
48404;BME280;34202;52.536;6.042;2022-10-16T17:10:01;101778.38;;;16.08;80.50
48404;BME280;34202;52.536;6.042;2022-10-16T17:15:02;101776.82;;;15.97;80.63
48404;BME280;34202;52.536;6.042;2022-10-16T17:20:02;101800.87;;;15.89;80.70
48404;BME280;34202;52.536;6.042;2022-10-16T17:25:03;101817.19;;;15.79;80.83
48404;BME280;34202;52.536;6.042;2022-10-16T17:30:04;101812.59;;;15.69;80.98
48404;BME280;34202;52.536;6.042;2022-10-16T17:35:05;101811.17;;;15.58;81.10
48404;BME280;34202;52.536;6.042;2022-10-16T17:40:06;101821.85;;;15.47;81.11
48404;BME280;34202;52.536;6.042;2022-10-16T17:45:07;101827.96;;;15.35;81.32
48404;BME280;34202;52.536;6.042;2022-10-16T17:50:07;101819.52;;;15.27;81.59
48404;BME280;34202;52.536;6.042;2022-10-16T17:55:08;101820.36;;;15.19;81.78
48404;BME280;34202;52.536;6.042;2022-10-16T18:00:09;101820.52;;;15.11;82.03
48404;BME280;34202;52.536;6.042;2022-10-16T18:05:10;101828.20;;;15.00;82.24
48404;BME280;34202;52.536;6.042;2022-10-16T18:10:10;101840.79;;;14.95;82.56
48404;BME280;34202;52.536;6.042;2022-10-16T18:15:11;101844.27;;;14.90;82.88
48404;BME280;34202;52.536;6.042;2022-10-16T18:20:11;101826.20;;;14.85;82.99
48404;BME280;34202;52.536;6.042;2022-10-16T18:25:11;101835.81;;;14.81;83.36
48404;BME280;34202;52.536;6.042;2022-10-16T18:30:12;101834.58;;;14.78;83.60
48404;BME280;34202;52.536;6.042;2022-10-16T18:35:13;101839.46;;;14.76;83.80
48404;BME280;34202;52.536;6.042;2022-10-16T18:40:13;101839.79;;;14.70;83.84
48404;BME280;34202;52.536;6.042;2022-10-16T18:45:13;101837.83;;;14.65;84.12
48404;BME280;34202;52.536;6.042;2022-10-16T18:50:16;101837.45;;;14.63;84.43
48404;BME280;34202;52.536;6.042;2022-10-16T18:55:17;101851.30;;;14.63;84.75
48404;BME280;34202;52.536;6.042;2022-10-16T19:00:17;101844.79;;;14.59;84.59
48404;BME280;34202;52.536;6.042;2022-10-16T19:05:17;101846.08;;;14.45;84.52
48404;BME280;34202;52.536;6.042;2022-10-16T19:10:18;101859.49;;;14.34;84.70
48404;BME280;34202;52.536;6.042;2022-10-16T19:15:18;101868.91;;;14.29;85.22
48404;BME280;34202;52.536;6.042;2022-10-16T19:20:21;101868.39;;;14.30;85.56
48404;BME280;34202;52.536;6.042;2022-10-16T19:25:22;101877.48;;;14.30;85.69
48404;BME280;34202;52.536;6.042;2022-10-16T19:30:22;101885.92;;;14.32;85.88
48404;BME280;34202;52.536;6.042;2022-10-16T19:35:24;101876.98;;;14.32;85.91
48404;BME280;34202;52.536;6.042;2022-10-16T19:40:26;101885.37;;;14.30;85.95
48404;BME280;34202;52.536;6.042;2022-10-16T19:45:26;101891.66;;;14.30;86.15
48404;BME280;34202;52.536;6.042;2022-10-16T19:50:27;101884.49;;;14.29;86.26
48404;BME280;34202;52.536;6.042;2022-10-16T19:55:30;101875.38;;;14.26;86.38
48404;BME280;34202;52.536;6.042;2022-10-16T20:00:30;101871.14;;;14.23;86.50
48404;BME280;34202;52.536;6.042;2022-10-16T20:05:30;101871.10;;;14.17;86.63
48404;BME280;34202;52.536;6.042;2022-10-16T20:10:31;101866.52;;;14.14;87.00
48404;BME280;34202;52.536;6.042;2022-10-16T20:15:31;101871.25;;;14.14;87.25
48404;BME280;34202;52.536;6.042;2022-10-16T20:20:36;101871.23;;;14.13;87.41
48404;BME280;34202;52.536;6.042;2022-10-16T20:25:38;101876.11;;;14.11;87.64
48404;BME280;34202;52.536;6.042;2022-10-16T20:30:41;101881.38;;;14.12;87.81
48404;BME280;34202;52.536;6.042;2022-10-16T20:35:44;101875.77;;;14.12;88.11
48404;BME280;34202;52.536;6.042;2022-10-16T20:40:46;101862.64;;;14.12;88.22
48404;BME280;34202;52.536;6.042;2022-10-16T20:45:58;101854.40;;;14.10;88.30
48404;BME280;34202;52.536;6.042;2022-10-16T20:50:58;101851.06;;;14.08;88.55
48404;BME280;34202;52.536;6.042;2022-10-16T20:56:00;101843.89;;;14.08;88.79
48404;BME280;34202;52.536;6.042;2022-10-16T21:01:07;101841.40;;;14.05;88.95
48404;BME280;34202;52.536;6.042;2022-10-16T21:06:09;101850.32;;;14.03;89.16
48404;BME280;34202;52.536;6.042;2022-10-16T21:11:12;101847.85;;;14.02;89.37
48404;BME280;34202;52.536;6.042;2022-10-16T21:16:13;101844.34;;;14.00;89.52
48404;BME280;34202;52.536;6.042;2022-10-16T21:21:35;101841.16;;;13.97;89.75
48404;BME280;34202;52.536;6.042;2022-10-16T21:26:36;101843.42;;;13.95;90.05
48404;BME280;34202;52.536;6.042;2022-10-16T21:31:37;101830.65;;;13.95;90.24
48404;BME280;34202;52.536;6.042;2022-10-16T21:36:39;101835.55;;;13.95;90.50
48404;BME280;34202;52.536;6.042;2022-10-16T21:41:41;101833.27;;;13.95;90.61
48404;BME280;34202;52.536;6.042;2022-10-16T21:46:42;101822.75;;;13.94;90.90
48404;BME280;34202;52.536;6.042;2022-10-16T21:51:47;101815.05;;;13.93;90.95
48404;BME280;34202;52.536;6.042;2022-10-16T21:56:47;101805.60;;;13.93;91.10
48404;BME280;34202;52.536;6.042;2022-10-16T22:01:48;101796.48;;;13.92;91.30
48404;BME280;34202;52.536;6.042;2022-10-16T22:06:48;101788.27;;;13.92;91.59
48404;BME280;34202;52.536;6.042;2022-10-16T22:11:48;101798.08;;;13.92;91.85
48404;BME280;34202;52.536;6.042;2022-10-16T22:16:50;101785.29;;;13.92;92.07
48404;BME280;34202;52.536;6.042;2022-10-16T22:21:52;101763.77;;;13.91;92.26
48404;BME280;34202;52.536;6.042;2022-10-16T22:26:56;101741.36;;;13.90;92.72
48404;BME280;34202;52.536;6.042;2022-10-16T22:31:56;101727.19;;;13.90;93.01
48404;BME280;34202;52.536;6.042;2022-10-16T22:36:56;101719.15;;;13.90;93.28
48404;BME280;34202;52.536;6.042;2022-10-16T22:41:57;101722.29;;;13.90;93.64
48404;BME280;34202;52.536;6.042;2022-10-16T22:46:57;101724.05;;;13.93;93.88
48404;BME280;34202;52.536;6.042;2022-10-16T22:51:57;101732.66;;;13.96;93.89
48404;BME280;34202;52.536;6.042;2022-10-16T22:56:57;101745.61;;;13.98;93.96
48404;BME280;34202;52.536;6.042;2022-10-16T23:01:58;101749.48;;;13.99;93.88
48404;BME280;34202;52.536;6.042;2022-10-16T23:06:58;101756.13;;;14.00;94.02
48404;BME280;34202;52.536;6.042;2022-10-16T23:11:59;101762.09;;;14.01;94.00
48404;BME280;34202;52.536;6.042;2022-10-16T23:16:59;101757.71;;;14.01;94.16
48404;BME280;34202;52.536;6.042;2022-10-16T23:21:59;101749.84;;;14.01;94.38
48404;BME280;34202;52.536;6.042;2022-10-16T23:27:00;101745.45;;;14.00;94.42
48404;BME280;34202;52.536;6.042;2022-10-16T23:32:00;101758.59;;;14.00;94.61
48404;BME280;34202;52.536;6.042;2022-10-16T23:37:00;101761.55;;;13.99;94.76
48404;BME280;34202;52.536;6.042;2022-10-16T23:42:02;101757.88;;;13.99;94.76
48404;BME280;34202;52.536;6.042;2022-10-16T23:47:03;101751.23;;;13.99;95.04
48404;BME280;34202;52.536;6.042;2022-10-16T23:52:03;101752.80;;;13.99;95.20
48404;BME280;34202;52.536;6.042;2022-10-16T23:57:04;101758.06;;;13.99;95.34
